createdAt,value
2023-01-13T00:00:51.700Z,1.04
2023-01-13T00:01:51.847Z,1.04
2023-01-13T00:02:52.014Z,1.04
2023-01-13T00:03:52.101Z,1.04
2023-01-13T00:04:52.244Z,1.04
2023-01-13T00:05:52.364Z,1.04
2023-01-13T00:06:52.508Z,1.04
2023-01-13T00:07:52.646Z,1.04
2023-01-13T00:08:52.764Z,1.04
2023-01-13T00:09:52.897Z,1.04
2023-01-13T00:10:53.055Z,1.04
2023-01-13T00:11:53.210Z,1.04
2023-01-13T00:12:53.376Z,1.04
2023-01-13T00:13:53.507Z,1.04
2023-01-13T00:14:53.661Z,1.04
2023-01-13T00:15:53.876Z,1.04
2023-01-13T00:16:53.982Z,1.04
2023-01-13T00:17:54.124Z,1.04
2023-01-13T00:18:54.292Z,1.04
2023-01-13T00:19:54.417Z,1.04
2023-01-13T00:20:54.571Z,1.04
2023-01-13T00:21:54.743Z,1.04
2023-01-13T00:22:54.880Z,1.04
2023-01-13T00:23:55.035Z,1.04
2023-01-13T00:24:55.187Z,1.04
2023-01-13T00:25:55.337Z,1.04
2023-01-13T00:26:55.483Z,1.04
2023-01-13T00:27:55.801Z,1.04
2023-01-13T00:28:55.743Z,1.04
2023-01-13T00:29:55.882Z,1.04
2023-01-13T00:30:56.110Z,1.04
2023-01-13T00:31:56.185Z,1.04
2023-01-13T00:32:56.301Z,1.04
2023-01-13T00:33:56.439Z,1.04
2023-01-13T00:34:56.600Z,1.04
2023-01-13T00:35:56.758Z,1.04
2023-01-13T00:36:56.897Z,1.04
2023-01-13T00:37:57.044Z,1.04
2023-01-13T00:38:57.184Z,1.04
2023-01-13T00:39:57.301Z,1.04
2023-01-13T00:40:57.397Z,1.04
2023-01-13T00:41:57.507Z,1.04
2023-01-13T00:42:57.657Z,1.04
2023-01-13T00:43:57.832Z,1.04
2023-01-13T00:44:57.965Z,1.04
2023-01-13T00:45:58.113Z,1.04
2023-01-13T00:46:58.271Z,1.04
2023-01-13T00:47:58.424Z,1.04
2023-01-13T00:48:58.582Z,1.04
2023-01-13T00:49:58.729Z,1.04
2023-01-13T00:50:58.864Z,1.04
2023-01-13T00:51:59.037Z,1.04
2023-01-13T00:52:59.166Z,1.04
2023-01-13T00:53:59.320Z,1.04
2023-01-13T00:54:59.480Z,1.04
2023-01-13T00:55:59.624Z,1.04
2023-01-13T00:56:59.787Z,1.04
2023-01-13T00:57:59.933Z,1.04
2023-01-13T00:59:00.090Z,1.04
2023-01-13T01:00:00.205Z,1.04
2023-01-13T01:01:00.411Z,1.04
2023-01-13T01:02:00.548Z,1.04
2023-01-13T01:03:00.662Z,1.04
2023-01-13T01:04:00.802Z,1.04
2023-01-13T01:05:00.910Z,1.04
2023-01-13T01:06:01.045Z,1.04
2023-01-13T01:07:01.199Z,1.04
2023-01-13T01:08:01.286Z,1.04
2023-01-13T01:09:01.404Z,1.04
2023-01-13T01:10:01.772Z,1.04
2023-01-13T01:11:01.670Z,1.04
2023-01-13T01:12:01.799Z,1.04
2023-01-13T01:13:01.973Z,1.04
2023-01-13T01:14:02.109Z,1.04
2023-01-13T01:15:02.215Z,1.04
2023-01-13T01:16:02.336Z,1.04
2023-01-13T01:17:02.437Z,1.04
2023-01-13T01:18:02.571Z,1.04
2023-01-13T01:19:02.723Z,1.04
2023-01-13T01:20:03.078Z,1.04
2023-01-13T01:21:03.075Z,1.04
2023-01-13T01:22:03.175Z,1.04
2023-01-13T01:23:03.312Z,1.04
2023-01-13T01:24:03.469Z,1.04
2023-01-13T01:25:03.613Z,1.04
2023-01-13T01:26:03.995Z,1.04
2023-01-13T01:27:03.918Z,1.04
2023-01-13T01:28:04.080Z,1.04
2023-01-13T01:29:05.002Z,1.04
2023-01-13T01:30:04.381Z,1.04
2023-01-13T01:31:04.504Z,1.04
2023-01-13T01:32:04.586Z,1.04
2023-01-13T01:33:04.951Z,1.04
2023-01-13T01:34:04.827Z,1.04
2023-01-13T01:35:05.006Z,1.04
2023-01-13T01:36:05.352Z,1.04
2023-01-13T01:37:05.232Z,1.04
2023-01-13T01:38:05.389Z,1.04
2023-01-13T01:39:05.491Z,1.04
2023-01-13T01:40:05.596Z,1.04
2023-01-13T01:41:05.753Z,1.04
2023-01-13T01:42:05.917Z,1.04
2023-01-13T01:43:05.984Z,1.04
2023-01-13T01:44:06.153Z,1.04
2023-01-13T01:45:06.506Z,1.04
2023-01-13T01:46:06.480Z,1.04
2023-01-13T01:47:07.015Z,1.04
2023-01-13T01:48:06.734Z,1.04
2023-01-13T01:49:07.330Z,1.04
2023-01-13T01:50:06.967Z,1.04
2023-01-13T01:51:07.103Z,1.04
2023-01-13T01:52:07.281Z,1.04
2023-01-13T01:53:07.457Z,1.04
2023-01-13T01:54:07.733Z,1.04
2023-01-13T01:55:07.681Z,1.04
2023-01-13T01:56:07.814Z,1.04
2023-01-13T01:57:07.975Z,1.04
2023-01-13T01:58:08.117Z,1.04
2023-01-13T01:59:08.277Z,1.04
2023-01-13T02:00:08.415Z,1.04
2023-01-13T02:01:08.653Z,1.04
2023-01-13T02:02:08.784Z,1.04
2023-01-13T02:03:08.834Z,1.04
2023-01-13T02:04:08.980Z,1.04
2023-01-13T02:05:09.141Z,1.04
2023-01-13T02:06:09.278Z,1.04
2023-01-13T02:07:09.435Z,1.04
2023-01-13T02:08:09.584Z,1.04
2023-01-13T02:09:09.629Z,1.04
2023-01-13T02:10:09.794Z,1.04
2023-01-13T02:11:09.952Z,1.04
2023-01-13T02:12:10.085Z,1.04
2023-01-13T02:13:10.184Z,1.04
2023-01-13T02:14:10.290Z,1.04
2023-01-13T02:15:10.434Z,1.04
2023-01-13T02:16:10.625Z,1.04
2023-01-13T02:17:10.764Z,1.04
2023-01-13T02:18:10.848Z,1.04
2023-01-13T02:19:10.997Z,1.04
2023-01-13T02:20:11.319Z,1.04
2023-01-13T02:21:11.246Z,1.04
2023-01-13T02:22:11.410Z,1.04
2023-01-13T02:23:11.561Z,1.04
2023-01-13T02:24:11.648Z,1.04
2023-01-13T02:25:11.752Z,1.04
2023-01-13T02:26:11.901Z,1.04
2023-01-13T02:27:12.057Z,1.04
2023-01-13T02:28:12.199Z,1.04
2023-01-13T02:29:12.321Z,1.04
2023-01-13T02:30:12.472Z,1.04
2023-01-13T02:31:12.642Z,1.04
2023-01-13T02:32:12.723Z,1.04
2023-01-13T02:33:13.079Z,1.04
2023-01-13T02:34:13.180Z,1.04
2023-01-13T02:35:13.125Z,1.04
2023-01-13T02:36:13.285Z,1.04
2023-01-13T02:37:13.426Z,1.04
2023-01-13T02:38:13.579Z,1.04
2023-01-13T02:39:13.952Z,1.04
2023-01-13T02:40:13.885Z,1.04
2023-01-13T02:41:13.978Z,1.04
2023-01-13T02:42:14.088Z,1.04
2023-01-13T02:43:14.180Z,1.04
2023-01-13T02:44:14.279Z,1.04
2023-01-13T02:45:14.593Z,1.04
2023-01-13T02:46:14.515Z,1.04
2023-01-13T02:47:14.597Z,1.04
2023-01-13T02:48:14.701Z,1.04
2023-01-13T02:49:14.796Z,1.04
2023-01-13T02:50:14.957Z,1.04
2023-01-13T02:51:15.099Z,1.04
2023-01-13T02:52:15.243Z,1.04
2023-01-13T02:53:15.390Z,1.04
2023-01-13T02:54:15.557Z,1.04
2023-01-13T02:55:15.702Z,1.04
2023-01-13T02:56:15.867Z,1.04
2023-01-13T02:57:16.010Z,1.04
2023-01-13T02:58:16.157Z,1.04
2023-01-13T02:59:16.302Z,1.04
2023-01-13T03:00:16.426Z,1.04
2023-01-13T03:01:16.693Z,1.04
2023-01-13T03:02:16.834Z,1.04
2023-01-13T03:03:16.809Z,1.04
2023-01-13T03:04:16.911Z,1.04
2023-01-13T03:05:17.060Z,1.04
2023-01-13T03:06:17.430Z,1.04
2023-01-13T03:07:17.375Z,1.04
2023-01-13T03:08:17.514Z,1.04
2023-01-13T03:09:17.666Z,1.04
2023-01-13T03:10:17.828Z,1.04
2023-01-13T03:11:17.934Z,1.04
2023-01-13T03:12:18.084Z,1.04
2023-01-13T03:13:18.229Z,1.04
2023-01-13T03:14:18.346Z,1.04
2023-01-13T03:15:18.481Z,1.04
2023-01-13T03:16:18.660Z,1.04
2023-01-13T03:17:18.738Z,1.04
2023-01-13T03:18:18.897Z,1.04
2023-01-13T03:19:19.030Z,1.04
2023-01-13T03:20:19.170Z,1.04
2023-01-13T03:21:19.294Z,1.04
2023-01-13T03:22:19.438Z,1.04
2023-01-13T03:23:19.533Z,1.04
2023-01-13T03:24:19.682Z,1.04
2023-01-13T03:25:19.836Z,1.04
2023-01-13T03:26:19.996Z,1.04
2023-01-13T03:27:20.141Z,1.04
2023-01-13T03:28:20.289Z,1.04
2023-01-13T03:29:20.449Z,1.04
2023-01-13T03:30:20.594Z,1.04
2023-01-13T03:31:20.759Z,1.04
2023-01-13T03:32:20.908Z,1.04
2023-01-13T03:33:21.060Z,1.04
2023-01-13T03:34:21.208Z,1.04
2023-01-13T03:35:21.291Z,1.04
2023-01-13T03:36:21.468Z,1.04
2023-01-13T03:37:21.618Z,1.04
2023-01-13T03:38:21.767Z,1.04
2023-01-13T03:39:21.919Z,1.04
2023-01-13T03:40:22.278Z,1.04
2023-01-13T03:41:22.223Z,1.04
2023-01-13T03:42:22.378Z,1.04
2023-01-13T03:43:22.530Z,1.04
2023-01-13T03:44:22.693Z,1.04
2023-01-13T03:45:22.831Z,1.04
2023-01-13T03:46:23.092Z,1.04
2023-01-13T03:47:23.153Z,1.04
2023-01-13T03:48:23.271Z,1.04
2023-01-13T03:49:23.439Z,1.04
2023-01-13T03:50:23.595Z,1.04
2023-01-13T03:51:23.723Z,1.04
2023-01-13T03:52:23.885Z,1.04
2023-01-13T03:53:24.032Z,1.04
2023-01-13T03:54:24.192Z,1.04
2023-01-13T03:55:24.345Z,1.04
2023-01-13T03:56:24.496Z,1.04
2023-01-13T03:57:24.645Z,1.04
2023-01-13T03:58:24.782Z,1.04
2023-01-13T03:59:24.944Z,1.04
2023-01-13T04:00:25.107Z,1.04
2023-01-13T04:01:25.317Z,1.04
2023-01-13T04:02:25.397Z,1.04
2023-01-13T04:03:25.581Z,1.04
2023-01-13T04:04:25.699Z,1.04
2023-01-13T04:05:26.360Z,1.04
2023-01-13T04:06:25.908Z,1.04
2023-01-13T04:07:26.040Z,1.04
2023-01-13T04:08:26.224Z,1.04
2023-01-13T04:09:26.351Z,1.04
2023-01-13T04:10:26.504Z,1.04
2023-01-13T04:11:26.679Z,1.04
2023-01-13T04:12:26.806Z,1.04
2023-01-13T04:13:26.974Z,1.04
2023-01-13T04:14:27.125Z,1.04
2023-01-13T04:15:27.293Z,1.04
2023-01-13T04:16:27.411Z,1.04
2023-01-13T04:17:27.586Z,1.04
2023-01-13T04:18:27.678Z,1.04
2023-01-13T04:19:27.774Z,1.04
2023-01-13T04:20:27.892Z,1.04
2023-01-13T04:21:28.020Z,1.04
2023-01-13T04:22:28.211Z,1.04
2023-01-13T04:23:28.332Z,1.04
2023-01-13T04:24:28.481Z,1.04
2023-01-13T04:25:28.631Z,1.04
2023-01-13T04:26:28.731Z,1.04
2023-01-13T04:27:28.871Z,1.04
2023-01-13T04:28:29.045Z,1.04
2023-01-13T04:29:29.187Z,1.04
2023-01-13T04:30:29.346Z,1.04
2023-01-13T04:31:29.483Z,1.04
2023-01-13T04:32:29.590Z,1.04
2023-01-13T04:33:29.746Z,1.04
2023-01-13T04:34:29.919Z,1.04
2023-01-13T04:35:29.981Z,1.04
2023-01-13T04:36:30.163Z,1.04
2023-01-13T04:37:30.299Z,1.04
2023-01-13T04:38:30.448Z,1.04
2023-01-13T04:39:30.619Z,1.04
2023-01-13T04:40:30.745Z,1.04
2023-01-13T04:41:30.902Z,1.04
2023-01-13T04:42:31.040Z,1.04
2023-01-13T04:43:31.201Z,1.04
2023-01-13T04:44:31.308Z,1.04
2023-01-13T04:45:31.414Z,1.04
2023-01-13T04:46:32.056Z,1.04
2023-01-13T04:47:31.987Z,1.04
2023-01-13T04:48:31.823Z,1.04
2023-01-13T04:49:35.986Z,1.04
2023-01-13T04:50:32.062Z,1.04
2023-01-13T04:51:32.177Z,1.04
2023-01-13T04:52:32.324Z,1.04
2023-01-13T04:53:32.476Z,1.04
2023-01-13T04:54:32.615Z,1.04
2023-01-13T04:55:32.788Z,1.04
2023-01-13T04:56:32.920Z,1.04
2023-01-13T04:57:33.027Z,1.04
2023-01-13T04:58:33.178Z,1.04
2023-01-13T04:59:34.527Z,1.04
2023-01-13T05:00:33.433Z,1.04
2023-01-13T05:01:33.696Z,1.04
2023-01-13T05:02:33.674Z,1.04
2023-01-13T05:03:33.834Z,1.04
2023-01-13T05:04:33.991Z,1.04
2023-01-13T05:05:34.134Z,1.04
2023-01-13T05:06:34.258Z,1.04
2023-01-13T05:07:34.382Z,1.04
2023-01-13T05:08:34.483Z,1.04
2023-01-13T05:09:34.616Z,1.04
2023-01-13T05:10:34.764Z,1.04
2023-01-13T05:11:34.895Z,1.04
2023-01-13T05:12:35.025Z,1.04
2023-01-13T05:13:35.163Z,1.04
2023-01-13T05:14:35.253Z,1.04
2023-01-13T05:15:35.459Z,1.04
2023-01-13T05:16:35.552Z,1.04
2023-01-13T05:17:35.923Z,1.04
2023-01-13T05:18:35.796Z,1.04
2023-01-13T05:19:35.965Z,1.04
2023-01-13T05:20:36.105Z,1.04
2023-01-13T05:21:36.260Z,1.04
2023-01-13T05:22:36.414Z,1.04
2023-01-13T05:23:36.564Z,1.04
2023-01-13T05:24:36.713Z,1.04
2023-01-13T05:25:36.807Z,1.04
2023-01-13T05:26:36.967Z,1.04
2023-01-13T05:27:37.122Z,1.04
2023-01-13T05:28:37.271Z,1.04
2023-01-13T05:29:37.427Z,1.04
2023-01-13T05:30:37.777Z,1.04
2023-01-13T05:31:37.736Z,1.04
2023-01-13T05:32:37.886Z,1.04
2023-01-13T05:33:38.026Z,1.04
2023-01-13T05:34:38.140Z,1.04
2023-01-13T05:35:38.225Z,1.04
2023-01-13T05:36:38.383Z,1.04
2023-01-13T05:37:38.491Z,1.04
2023-01-13T05:38:38.630Z,1.04
2023-01-13T05:39:38.794Z,1.04
2023-01-13T05:40:38.957Z,1.04
2023-01-13T05:41:39.043Z,1.04
2023-01-13T05:42:39.195Z,1.04
2023-01-13T05:43:39.351Z,1.04
2023-01-13T05:44:39.490Z,1.04
2023-01-13T05:45:39.811Z,1.04
2023-01-13T05:46:39.743Z,1.04
2023-01-13T05:47:39.848Z,1.04
2023-01-13T05:48:40.044Z,1.04
2023-01-13T05:49:42.189Z,1.04
2023-01-13T05:50:40.252Z,1.04
2023-01-13T05:51:40.372Z,1.04
2023-01-13T05:52:40.515Z,1.04
2023-01-13T05:53:40.710Z,1.04
2023-01-13T05:54:40.814Z,1.04
2023-01-13T05:55:40.980Z,1.04
2023-01-13T05:56:41.121Z,1.04
2023-01-13T05:57:41.269Z,1.04
2023-01-13T05:58:41.415Z,1.04
2023-01-13T05:59:41.566Z,1.04
2023-01-13T06:00:41.953Z,1.04
2023-01-13T06:01:41.831Z,1.04
2023-01-13T06:02:41.996Z,1.04
2023-01-13T06:03:42.119Z,1.04
2023-01-13T06:04:42.272Z,1.04
2023-01-13T06:05:42.374Z,1.04
2023-01-13T06:06:42.531Z,1.04
2023-01-13T06:07:42.683Z,1.04
2023-01-13T06:08:42.832Z,1.04
2023-01-13T06:09:42.995Z,1.04
2023-01-13T06:10:43.142Z,1.04
2023-01-13T06:11:43.244Z,1.04
2023-01-13T06:12:43.399Z,1.04
2023-01-13T06:13:43.532Z,1.04
2023-01-13T06:14:43.678Z,1.04
2023-01-13T06:15:43.897Z,1.04
2023-01-13T06:16:43.961Z,1.04
2023-01-13T06:17:44.104Z,1.04
2023-01-13T06:18:44.255Z,1.04
2023-01-13T06:19:44.351Z,1.04
2023-01-13T06:20:44.502Z,1.04
2023-01-13T06:21:44.662Z,1.04
2023-01-13T06:22:44.802Z,1.04
2023-01-13T06:23:44.966Z,1.04
2023-01-13T06:24:45.127Z,1.04
2023-01-13T06:25:45.269Z,1.04
2023-01-13T06:26:45.416Z,1.04
2023-01-13T06:27:45.561Z,2
2023-01-13T06:28:45.671Z,2
2023-01-13T06:29:45.806Z,2
2023-01-13T06:30:45.917Z,2
2023-01-13T06:31:46.082Z,2
2023-01-13T06:32:46.223Z,2
2023-01-13T06:33:46.375Z,3.04
2023-01-13T06:34:46.691Z,3.04
2023-01-13T06:35:46.636Z,3.04
2023-01-13T06:36:46.779Z,4
2023-01-13T06:37:46.936Z,5.04
2023-01-13T06:38:47.025Z,5.04
2023-01-13T06:39:47.139Z,6
2023-01-13T06:40:47.281Z,9.04
2023-01-13T06:41:47.427Z,11.04
2023-01-13T06:42:47.583Z,12
2023-01-13T06:43:47.688Z,16
2023-01-13T06:44:47.834Z,22
2023-01-13T06:45:47.990Z,27.04
2023-01-13T06:46:48.240Z,30
2023-01-13T06:47:48.249Z,35.04
2023-01-13T06:48:48.597Z,39.04
2023-01-13T06:49:48.537Z,44
2023-01-13T06:50:48.635Z,47.04
2023-01-13T06:51:48.746Z,50
2023-01-13T06:52:48.843Z,56
2023-01-13T06:53:49.002Z,59.04
2023-01-13T06:54:49.145Z,61.04
2023-01-13T06:55:49.303Z,65.04
2023-01-13T06:56:49.452Z,69.04
2023-01-13T06:57:49.568Z,80
2023-01-13T06:58:49.712Z,91.04
2023-01-13T06:59:50.663Z,109.04
2023-01-13T07:00:50.081Z,125.04
2023-01-13T07:01:50.301Z,140
2023-01-13T07:02:50.293Z,148
2023-01-13T07:03:50.357Z,160
2023-01-13T07:04:50.521Z,168
2023-01-13T07:05:50.612Z,185.12
2023-01-13T07:06:50.776Z,203.04
2023-01-13T07:07:50.926Z,218.08
2023-01-13T07:08:51.061Z,231.04
2023-01-13T07:09:51.222Z,259.04
2023-01-13T07:10:51.398Z,294.08
2023-01-13T07:11:51.472Z,322.08
2023-01-13T07:12:51.628Z,347.2
2023-01-13T07:13:51.788Z,375.04
2023-01-13T07:14:51.919Z,415.04
2023-01-13T07:15:52.080Z,440
2023-01-13T07:16:52.275Z,416
2023-01-13T07:17:52.328Z,384
2023-01-13T07:18:52.489Z,351.04
2023-01-13T07:19:52.628Z,324
2023-01-13T07:20:52.750Z,318.08
2023-01-13T07:21:53.380Z,331.2
2023-01-13T07:22:53.031Z,348.16
2023-01-13T07:23:53.148Z,363.2
2023-01-13T07:24:53.237Z,387.2
2023-01-13T07:25:53.401Z,417.28
2023-01-13T07:26:53.551Z,456
2023-01-13T07:27:53.862Z,501.12
2023-01-13T07:28:53.804Z,539.2
2023-01-13T07:29:53.948Z,560
2023-01-13T07:30:54.127Z,584
2023-01-13T07:31:54.291Z,620.16
2023-01-13T07:32:54.413Z,651.2
2023-01-13T07:33:54.560Z,634.24
2023-01-13T07:34:54.708Z,628.16
2023-01-13T07:35:54.858Z,637.12
2023-01-13T07:36:55.021Z,701.44
2023-01-13T07:37:55.159Z,826.24
2023-01-13T07:38:55.323Z,899.2
2023-01-13T07:39:55.475Z,939.52
2023-01-13T07:40:55.720Z,1030.4
2023-01-13T07:41:55.769Z,1148.16
2023-01-13T07:42:55.874Z,1295.36
2023-01-13T07:43:56.016Z,1473.28
2023-01-13T07:44:56.120Z,1564.16
2023-01-13T07:45:56.515Z,1715.2
2023-01-13T07:46:56.376Z,1807.36
2023-01-13T07:47:56.540Z,1922.56
2023-01-13T07:48:56.680Z,2117.12
2023-01-13T07:49:56.831Z,2343.68
2023-01-13T07:50:56.989Z,2469.12
2023-01-13T07:51:57.079Z,2675.2
2023-01-13T07:52:57.163Z,3000.32
2023-01-13T07:53:57.265Z,3015.68
2023-01-13T07:54:57.373Z,3051.52
2023-01-13T07:55:57.528Z,3077.12
2023-01-13T07:56:57.709Z,3023.36
2023-01-13T07:57:57.794Z,2657.28
2023-01-13T07:58:57.972Z,2241.28
2023-01-13T07:59:58.091Z,2013.44
2023-01-13T08:00:58.430Z,1916.16
2023-01-13T08:01:58.541Z,2007.04
2023-01-13T08:02:58.487Z,1981.44
2023-01-13T08:03:58.606Z,1646.08
2023-01-13T08:04:58.781Z,1312
2023-01-13T08:05:58.914Z,1086.08
2023-01-13T08:06:59.051Z,1038.08
2023-01-13T08:07:59.207Z,1044.48
2023-01-13T08:08:59.357Z,1034.24
2023-01-13T08:09:59.476Z,1227.52
2023-01-13T08:10:59.611Z,1436.16
2023-01-13T08:11:59.754Z,1516.8
2023-01-13T08:12:59.946Z,1706.24
2023-01-13T08:14:00.075Z,2182.4
2023-01-13T08:15:00.209Z,2332.16
2023-01-13T08:16:00.364Z,2370.56
2023-01-13T08:17:00.584Z,2291.2
2023-01-13T08:18:00.679Z,2181.12
2023-01-13T08:19:00.831Z,2120.96
2023-01-13T08:20:00.929Z,2023.68
2023-01-13T08:21:01.093Z,1971.2
2023-01-13T08:22:01.233Z,1815.04
2023-01-13T08:23:01.367Z,1683.2
2023-01-13T08:24:01.534Z,1671.68
2023-01-13T08:25:01.631Z,1844.48
2023-01-13T08:26:01.793Z,1802.24
2023-01-13T08:27:01.948Z,1692.16
2023-01-13T08:28:02.086Z,1532.16
2023-01-13T08:29:02.244Z,1447.68
2023-01-13T08:30:02.349Z,1564.16
2023-01-13T08:31:02.543Z,1771.52
2023-01-13T08:32:02.647Z,1898.24
2023-01-13T08:33:02.800Z,1987.84
2023-01-13T08:34:02.942Z,2371.84
2023-01-13T08:35:03.066Z,2890.24
2023-01-13T08:36:03.213Z,3456
2023-01-13T08:37:03.360Z,3491.84
2023-01-13T08:38:03.497Z,3299.84
2023-01-13T08:39:03.610Z,3051.52
2023-01-13T08:40:03.782Z,3192.32
2023-01-13T08:41:03.902Z,3297.28
2023-01-13T08:42:04.045Z,3389.44
2023-01-13T08:43:04.159Z,3279.36
2023-01-13T08:44:04.263Z,2752
2023-01-13T08:45:04.413Z,2014.72
2023-01-13T08:46:04.933Z,1864.96
2023-01-13T08:47:04.675Z,1797.12
2023-01-13T08:48:04.826Z,1785.6
2023-01-13T08:49:04.975Z,1848.32
2023-01-13T08:50:05.123Z,1932.8
2023-01-13T08:51:05.273Z,1939.2
2023-01-13T08:52:05.431Z,1761.28
2023-01-13T08:53:05.531Z,1733.12
2023-01-13T08:54:05.643Z,1312
2023-01-13T08:55:05.762Z,824.32
2023-01-13T08:56:05.949Z,696.32
2023-01-13T08:57:06.303Z,770.56
2023-01-13T08:58:15.166Z,759.04
2023-01-13T08:59:06.529Z,1041.28
2023-01-13T09:00:06.633Z,1519.36
2023-01-13T09:01:06.927Z,1606.4
2023-01-13T09:02:06.975Z,1469.44
2023-01-13T09:03:06.936Z,1589.76
2023-01-13T09:04:07.141Z,1797.12
2023-01-13T09:05:07.278Z,1996.8
2023-01-13T09:06:07.413Z,2250.24
2023-01-13T09:07:07.556Z,2408.96
2023-01-13T09:08:07.708Z,2411.52
2023-01-13T09:09:07.851Z,2524.16
2023-01-13T09:10:07.941Z,2746.88
2023-01-13T09:11:08.105Z,2723.84
2023-01-13T09:12:08.259Z,2670.08
2023-01-13T09:13:08.351Z,2659.84
2023-01-13T09:14:08.506Z,2682.88
2023-01-13T09:15:08.657Z,2593.28
2023-01-13T09:16:08.872Z,2492.16
2023-01-13T09:17:08.987Z,2405.12
2023-01-13T09:18:09.083Z,2251.52
2023-01-13T09:19:09.212Z,2245.12
2023-01-13T09:20:09.392Z,2378.24
2023-01-13T09:21:09.481Z,2494.72
2023-01-13T09:22:09.624Z,2626.56
2023-01-13T09:23:10.780Z,2926.08
2023-01-13T09:24:09.927Z,3210.24
2023-01-13T09:25:10.059Z,3041.28
2023-01-13T09:26:10.231Z,2560
2023-01-13T09:27:10.415Z,2603.52
2023-01-13T09:28:10.549Z,2928.64
2023-01-13T09:29:10.685Z,3115.52
2023-01-13T09:30:10.823Z,3136
2023-01-13T09:31:10.996Z,3182.08
2023-01-13T09:32:11.117Z,3351.04
2023-01-13T09:33:11.291Z,3443.2
2023-01-13T09:34:11.427Z,3456
2023-01-13T09:35:11.581Z,3678.72
2023-01-13T09:36:11.754Z,4152.32
2023-01-13T09:37:11.846Z,4771.84
2023-01-13T09:38:11.943Z,5061.12
2023-01-13T09:39:12.091Z,5114.88
2023-01-13T09:40:12.253Z,5125.12
2023-01-13T09:41:12.397Z,4623.36
2023-01-13T09:42:12.515Z,4666.88
2023-01-13T09:43:12.659Z,4817.92
2023-01-13T09:44:12.800Z,4846.08
2023-01-13T09:45:12.952Z,4866.56
2023-01-13T09:46:13.159Z,4907.52
2023-01-13T09:47:14.196Z,5235.2
2023-01-13T09:48:13.359Z,6123.52
2023-01-13T09:49:13.511Z,6763.52
2023-01-13T09:50:13.660Z,6968.32
2023-01-13T09:51:13.827Z,6154.24
2023-01-13T09:52:13.957Z,5596.16
2023-01-13T09:53:14.122Z,5488.64
2023-01-13T09:54:14.234Z,5248
2023-01-13T09:55:14.362Z,4948.48
2023-01-13T09:56:14.520Z,4736
2023-01-13T09:57:14.682Z,4940.8
2023-01-13T09:58:14.826Z,5230.08
2023-01-13T09:59:14.936Z,5539.84
2023-01-13T10:00:15.111Z,5980.16
2023-01-13T10:01:15.247Z,6359.04
2023-01-13T10:02:15.342Z,5898.24
2023-01-13T10:03:15.521Z,5240.32
2023-01-13T10:04:15.665Z,4641.28
2023-01-13T10:05:15.776Z,4515.84
2023-01-13T10:06:15.926Z,4510.72
2023-01-13T10:07:16.076Z,4328.96
2023-01-13T10:08:16.241Z,4175.36
2023-01-13T10:09:16.390Z,4113.92
2023-01-13T10:10:16.554Z,4065.28
2023-01-13T10:11:16.685Z,3952.64
2023-01-13T10:12:16.867Z,3927.04
2023-01-13T10:13:17.207Z,4034.56
2023-01-13T10:14:17.345Z,4208.64
2023-01-13T10:15:17.502Z,4431.36
2023-01-13T10:16:17.717Z,4840.96
2023-01-13T10:17:17.808Z,5754.88
2023-01-13T10:18:17.948Z,7306.24
2023-01-13T10:19:18.114Z,10152.96
2023-01-13T10:20:18.266Z,12421.12
2023-01-13T10:21:18.362Z,11898.88
2023-01-13T10:22:18.464Z,10439.68
2023-01-13T10:23:18.619Z,9308.16
2023-01-13T10:24:18.766Z,8448
2023-01-13T10:25:18.884Z,7685.12
2023-01-13T10:26:19.127Z,8053.76
2023-01-13T10:27:19.174Z,9292.8
2023-01-13T10:28:19.584Z,11264
2023-01-13T10:29:19.428Z,14192.64
2023-01-13T10:30:19.621Z,15288.319
2023-01-13T10:31:19.753Z,15073.279
2023-01-13T10:32:19.828Z,15196.159
2023-01-13T10:33:19.924Z,16435.2
2023-01-13T10:34:20.082Z,16947.2
2023-01-13T10:35:20.229Z,15708.159
2023-01-13T10:36:20.328Z,12994.56
2023-01-13T10:37:20.475Z,9031.68
2023-01-13T10:38:20.628Z,6650.88
2023-01-13T10:39:20.789Z,4907.52
2023-01-13T10:40:20.968Z,4098.56
2023-01-13T10:41:21.078Z,3601.92
2023-01-13T10:42:21.186Z,3494.4
2023-01-13T10:43:21.301Z,3883.52
2023-01-13T10:44:21.448Z,4188.16
2023-01-13T10:45:21.586Z,4175.36
2023-01-13T10:46:21.822Z,4037.12
2023-01-13T10:47:21.941Z,4423.68
2023-01-13T10:48:22.264Z,5329.92
2023-01-13T10:49:22.148Z,5309.44
2023-01-13T10:50:22.271Z,5130.24
2023-01-13T10:51:22.369Z,5703.68
2023-01-13T10:52:22.492Z,6415.36
2023-01-13T10:53:22.569Z,6328.32
2023-01-13T10:54:22.651Z,6082.56
2023-01-13T10:55:22.800Z,6108.16
2023-01-13T10:56:22.947Z,6097.92
2023-01-13T10:57:23.066Z,5918.72
2023-01-13T10:58:23.171Z,5995.52
2023-01-13T10:59:23.302Z,5918.72
2023-01-13T11:00:23.415Z,5463.04
2023-01-13T11:01:23.655Z,4707.84
2023-01-13T11:02:26.397Z,4188.16
2023-01-13T11:03:23.803Z,3978.24
2023-01-13T11:04:23.946Z,4390.4
2023-01-13T11:05:24.076Z,5391.36
2023-01-13T11:06:24.244Z,6533.12
2023-01-13T11:07:26.264Z,7336.96
2023-01-13T11:08:24.670Z,6973.44
2023-01-13T11:09:24.790Z,6190.08
2023-01-13T11:10:24.928Z,5122.56
2023-01-13T11:11:25.071Z,4431.36
2023-01-13T11:12:25.241Z,4065.28
2023-01-13T11:13:25.394Z,4142.08
2023-01-13T11:14:25.510Z,4293.12
2023-01-13T11:15:25.635Z,4185.6
2023-01-13T11:16:25.870Z,4101.12
2023-01-13T11:17:25.902Z,3983.36
2023-01-13T11:18:26.014Z,3729.92
2023-01-13T11:19:26.149Z,3530.24
2023-01-13T11:20:26.244Z,3438.08
2023-01-13T11:21:26.326Z,3458.56
2023-01-13T11:22:26.492Z,3494.4
2023-01-13T11:23:26.591Z,3535.36
2023-01-13T11:24:26.753Z,3676.16
2023-01-13T11:25:26.895Z,3791.36
2023-01-13T11:26:27.026Z,4101.12
2023-01-13T11:27:27.163Z,4142.08
2023-01-13T11:28:27.261Z,3732.48
2023-01-13T11:29:27.416Z,2913.28
2023-01-13T11:30:27.552Z,2741.76
2023-01-13T11:31:27.747Z,2982.4
2023-01-13T11:32:27.823Z,3645.44
2023-01-13T11:33:27.965Z,4651.52
2023-01-13T11:34:28.115Z,5427.2
2023-01-13T11:35:28.280Z,6138.88
2023-01-13T11:36:28.427Z,6681.6
2023-01-13T11:37:28.532Z,6963.2
2023-01-13T11:38:28.733Z,7034.88
2023-01-13T11:39:28.782Z,6896.64
2023-01-13T11:40:28.873Z,6758.4
2023-01-13T11:41:28.996Z,6855.68
2023-01-13T11:42:29.128Z,7086.08
2023-01-13T11:43:29.287Z,7541.76
2023-01-13T11:44:29.427Z,8125.44
2023-01-13T11:45:29.572Z,9000.96
2023-01-13T11:46:29.772Z,11642.88
2023-01-13T11:47:29.889Z,20275.2
2023-01-13T11:48:30.076Z,47718.4
2023-01-13T11:49:30.142Z,21811.2
2023-01-13T11:50:30.240Z,30720
2023-01-13T11:51:30.400Z,23552
2023-01-13T11:52:30.556Z,35041.28
2023-01-13T11:53:30.706Z,68730.88
2023-01-13T11:54:30.843Z,58654.72
2023-01-13T11:55:30.966Z,70451.2
2023-01-13T11:56:31.051Z,69468.16
2023-01-13T11:57:31.207Z,51077.12
2023-01-13T11:58:31.956Z,16199.68
2023-01-13T11:59:31.711Z,18350.08
2023-01-13T12:00:31.812Z,10142.72
2023-01-13T12:01:31.934Z,8417.28
2023-01-13T12:02:32.115Z,10690.56
2023-01-13T12:03:32.236Z,12625.92
2023-01-13T12:04:32.364Z,16936.96
2023-01-13T12:05:32.468Z,12206.08
2023-01-13T12:06:32.573Z,10608.64
2023-01-13T12:07:32.713Z,11284.479
2023-01-13T12:08:32.882Z,11560.96
2023-01-13T12:09:32.964Z,11612.16
2023-01-13T12:10:33.127Z,11079.68
2023-01-13T12:11:33.268Z,10885.12
2023-01-13T12:12:33.378Z,9026.56
2023-01-13T12:13:33.753Z,9216
2023-01-13T12:14:33.621Z,10670.08
2023-01-13T12:15:34.003Z,9139.2
2023-01-13T12:16:34.000Z,8217.6
2023-01-13T12:17:34.096Z,7229.44
2023-01-13T12:18:34.239Z,6394.88
2023-01-13T12:19:34.388Z,6174.72
2023-01-13T12:20:34.526Z,6435.84
2023-01-13T12:21:34.638Z,6630.4
2023-01-13T12:22:36.810Z,6676.48
2023-01-13T12:23:34.958Z,7628.8
2023-01-13T12:24:35.084Z,9815.04
2023-01-13T12:25:35.240Z,11048.96
2023-01-13T12:26:35.400Z,17346.56
2023-01-13T12:27:35.562Z,46489.6
2023-01-13T12:28:35.742Z,34222.08
2023-01-13T12:29:35.797Z,19793.92
2023-01-13T12:30:35.951Z,30453.76
2023-01-13T12:31:36.175Z,25948.16
2023-01-13T12:32:36.277Z,13793.279
2023-01-13T12:33:36.407Z,6379.52
2023-01-13T12:34:36.562Z,6067.2
2023-01-13T12:35:36.660Z,6548.48
2023-01-13T12:36:36.759Z,8273.92
2023-01-13T12:37:36.896Z,6973.44
2023-01-13T12:38:37.075Z,6369.28
2023-01-13T12:39:37.215Z,7024.64
2023-01-13T12:40:37.354Z,8309.76
2023-01-13T12:41:37.489Z,10035.2
2023-01-13T12:42:37.621Z,12298.239
2023-01-13T12:43:37.721Z,15472.64
2023-01-13T12:44:37.860Z,9328.64
2023-01-13T12:45:38.059Z,6952.96
2023-01-13T12:46:38.121Z,8314.88
2023-01-13T12:47:38.224Z,7669.76
2023-01-13T12:48:38.327Z,6026.24
2023-01-13T12:49:38.465Z,5642.24
2023-01-13T12:50:38.598Z,6149.12